Garryowen, MT (59031)

11:03 AM MDT on September 17, 2014 (GMT -0600)
Sheridan County | Change Station
CLOSE
Current Station
Airport
Location: Sheridan,
Elevation: 3967 ft
Nearby Weather Stations

Elev 3967 ft 44.76 °N, 106.97 °W | Updated 1 hour ago

Partly Cloudy
Partly Cloudy
77 °F
Feels Like 77 °F
N
4
Wind Variable Wind from NE

Today
High -- | Low -- °F
--% Chance of Precip.
Yesterday
High -- | Low -- °F
Precip. -- in
6:50 AM 7:16 PM
Waning Crescent, 34% visible
Pressure 29.87 in
Visibility 10.0 miles
Clouds Clear
Dew Point 49 °F
Humidity 37%
Rainfall 0.00 in
Snow Depth 0 in , 0 in , 0 in
UV 3 out of 12
Pollen 5.80 out of 12
Air Quality Not available.
Flu Activity Not available.
METAR KSHR 171553Z AUTO 04003KT 10SM CLR 25/09 A2996 RMK AO2 SLP115 T02500094

More Conditions Fewer Conditions

Pressure 29.87 in
Visibility 10.0 miles
Clouds Clear
Dew Point 49 °F
Humidity 37%
Rainfall 0.00 in
Snow Depth 0 in , 0 in , 0 in
UV 3 out of 12
Pollen 5.80 out of 12
Air Quality Not available.
Flu Activity Not available.
METAR KSHR 171553Z AUTO 04003KT 10SM CLR 25/09 A2996 RMK AO2 SLP115 T02500094

More Conditions Fewer Conditions

10-Day Weather Forecast

Almanac

Astronomy

Sep. 17, 2014 Rise Set
Actual Time 6:50 AM MDT 7:16 PM MDT
Civil Twilight 6:20 AM MDT 7:45 PM MDT
Nautical Twilight 5:45 AM MDT 8:20 PM MDT
Astronomical Twilight 5:08 AM MDT 8:56 PM MDT
Moon 12:40 AM MDT 3:39 PM MDT
Length of Visible Light 13h 25m
Length of Day
12h 26m
Tomorrow will be 3m 10s shorter.
Waning Crescent, 34% of the Moon is Illuminated
Today
Waning Crescent
Sep 24
New
Oct 1
First Quarter
Oct 8
Full
Oct 15
Last Quarter

Today's Extremes

State Highs State Lows

Community

WunderPhotos

Upload Photos

1,754,106 photos uploaded!

Nearby

Snow Depth

Station Depth Elevation
Tizer Basin 0 in 6840 ft
Beagle Springs 0 in 8850 ft
Clover Meadow 0 in 8800 ft
Short Creek 0 in 7000 ft
Black Pine 1 in 7210 ft

Earthquake Activity

City Distance Mag. Time & Date
No recent earthquake activity has been reported nearby.
Minimum magnitude displayed is 2.5.

Coastal Water Temperatures

Place Temperature
No Stations Reporting

Nearby Weather Stations